Time;durP1;ratioP1;P1;durP2;ratioP2;P2;SDS_P1;SDS_P2;PMS_P1;PMS_P2;Temp;Humidity;BMP_temperature;BMP_pressure;BME280_temperature;BME280_humidity;BME280_pressure;Samples;Min_cycle;Max_cycle;Signal;HPM_P1;HPM_P2
2023/04/22 00:00:53;;;;;;;;;;;;;;;14.16;46.29;101066.38;4103790;28;20013;-69
2023/04/22 00:02:56;;;;;;;;;;;;;;;14.14;46.57;101072.00;4104177;28;20029;-69
2023/04/22 00:05:00;;;;;;;;;;;;;;;14.10;46.64;101068.00;4103765;28;20021;-67
2023/04/22 00:07:02;;;;;;;;;;;;;;;14.09;46.49;101073.63;4104821;28;20353;-69
2023/04/22 00:09:04;;;;;;;;;;;;;;;14.05;46.73;101065.84;4104672;28;20022;-69
2023/04/22 00:11:06;;;;;;;;;;;;;;;14.01;46.59;101061.00;4103689;28;20047;-69
2023/04/22 00:13:08;;;;;;;;;;;;;;;13.99;46.81;101063.91;4103662;28;20393;-69
2023/04/22 00:15:10;;;;;;;;;;;;;;;13.98;46.61;101055.94;4104129;28;20045;-69
2023/04/22 00:17:12;;;;;;;;;;;;;;;13.96;46.76;101050.69;4086578;29;19963;-69
2023/04/22 00:19:18;;;;;;;;;;;;;;;13.94;46.72;101050.06;4104420;28;20467;-69
2023/04/22 00:21:20;;;;;;;;;;;;;;;13.90;47.29;101042.50;4104331;28;20468;-69
2023/04/22 00:23:22;;;;;;;;;;;;;;;13.85;47.37;101043.91;4103874;28;20357;-67
2023/04/22 00:25:24;;;;;;;;;;;;;;;13.82;47.36;101044.31;4085055;29;20025;-68
2023/04/22 00:27:27;;;;;;;;;;;;;;;13.80;47.16;101040.91;4088951;28;19984;-67
2023/04/22 00:29:29;;;;;;;;;;;;;;;13.77;47.35;101041.31;4103817;28;19930;-67
2023/04/22 00:31:31;;;;;;;;;;;;;;;13.74;47.05;101044.41;4103873;28;20536;-67
2023/04/22 00:33:33;;;;;;;;;;;;;;;13.72;47.34;101038.31;4087832;28;20025;-68
2023/04/22 00:35:37;;;;;;;;;;;;;;;13.70;47.46;101040.41;4102640;28;20036;-68
2023/04/22 00:37:39;;;;;;;;;;;;;;;13.67;47.43;101035.34;4089794;28;19930;-68
2023/04/22 00:39:41;;;;;;;;;;;;;;;13.66;47.76;101029.06;4101075;28;20017;-68
2023/04/22 00:41:43;;;;;;;;;;;;;;;13.62;47.65;101026.91;4085921;29;20468;-67
2023/04/22 00:43:45;;;;;;;;;;;;;;;13.58;47.63;101029.19;4086394;29;20053;-67
2023/04/22 00:45:47;;;;;;;;;;;;;;;13.57;47.79;101030.19;4102638;28;20017;-67
2023/04/22 00:47:49;;;;;;;;;;;;;;;13.52;48.07;101021.78;4106846;28;20028;-67
2023/04/22 00:49:51;;;;;;;;;;;;;;;13.49;48.37;101025.75;4090312;28;20029;-67
2023/04/22 00:51:55;;;;;;;;;;;;;;;13.51;47.74;101022.81;4107492;28;20021;-67
2023/04/22 00:53:57;;;;;;;;;;;;;;;13.50;47.90;101018.44;4107008;28;20342;-67
2023/04/22 00:55:59;;;;;;;;;;;;;;;13.46;48.11;101025.25;4089847;28;20029;-67
2023/04/22 00:58:01;;;;;;;;;;;;;;;13.44;48.46;101024.63;4106649;28;20304;-67
2023/04/22 01:00:03;;;;;;;;;;;;;;;13.42;48.32;101022.09;4106632;28;20018;-66
2023/04/22 01:02:05;;;;;;;;;;;;;;;13.41;48.49;101020.41;4102140;28;20365;-66
2023/04/22 01:04:09;;;;;;;;;;;;;;;13.37;48.52;101021.81;4106932;28;20025;-67
2023/04/22 01:06:11;;;;;;;;;;;;;;;13.35;48.75;101018.44;4104515;28;20053;-67
2023/04/22 01:08:15;;;;;;;;;;;;;;;13.31;48.79;101023.38;4074122;29;20029;-67
2023/04/22 01:10:17;;;;;;;;;;;;;;;13.29;48.99;101021.88;4104040;28;20013;-68
2023/04/22 01:12:19;;;;;;;;;;;;;;;13.24;48.92;101022.44;4106558;28;20033;-67
2023/04/22 01:14:21;;;;;;;;;;;;;;;13.23;49.18;101014.47;4106811;28;20009;-67
2023/04/22 01:16:23;;;;;;;;;;;;;;;13.20;49.15;101018.44;4106494;28;20009;-67
2023/04/22 01:18:25;;;;;;;;;;;;;;;13.15;49.20;101007.31;4105592;28;19942;-67
2023/04/22 01:20:28;;;;;;;;;;;;;;;13.10;49.58;101017.88;4104624;28;20854;-68
2023/04/22 01:22:32;;;;;;;;;;;;;;;13.08;49.67;101014.50;4102502;28;20028;-67
2023/04/22 01:24:35;;;;;;;;;;;;;;;13.05;49.35;101015.72;4090605;28;20464;-67
2023/04/22 01:26:37;;;;;;;;;;;;;;;13.05;49.49;101015.72;4105600;28;20032;-67
2023/04/22 01:28:39;;;;;;;;;;;;;;;13.04;49.61;101022.19;4087905;29;20041;-67
2023/04/22 01:30:42;;;;;;;;;;;;;;;13.04;49.32;101005.91;4105810;28;20468;-67
2023/04/22 01:32:44;;;;;;;;;;;;;;;13.02;49.36;101013.38;4073822;29;20018;-67
2023/04/22 01:34:46;;;;;;;;;;;;;;;12.98;49.28;101021.03;4106606;28;20613;-67
2023/04/22 01:36:49;;;;;;;;;;;;;;;12.98;49.36;101012.91;4090283;28;19994;-67
2023/04/22 01:38:51;;;;;;;;;;;;;;;12.96;49.71;101014.97;4090419;28;19927;-67
2023/04/22 01:40:54;;;;;;;;;;;;;;;12.91;49.84;101011.13;4106015;28;20017;-67
2023/04/22 01:42:56;;;;;;;;;;;;;;;12.88;49.57;101012.31;4089592;28;20030;-67
2023/04/22 01:44:58;;;;;;;;;;;;;;;12.86;50.01;101006.25;4106973;28;20496;-67
2023/04/22 01:47:00;;;;;;;;;;;;;;;12.85;49.82;101009.16;4103991;28;20028;-67
2023/04/22 01:49:03;;;;;;;;;;;;;;;12.83;50.15;101003.09;4088790;29;20027;-67
2023/04/22 01:51:05;;;;;;;;;;;;;;;12.81;49.90;101003.28;4106217;28;19927;-67
2023/04/22 01:53:10;;;;;;;;;;;;;;;12.80;49.91;101001.56;4105590;28;20025;-67
2023/04/22 01:55:13;;;;;;;;;;;;;;;12.77;49.88;101001.94;4074050;29;20022;-67
2023/04/22 01:57:16;;;;;;;;;;;;;;;12.74;50.29;100997.75;4089691;29;20013;-67
2023/04/22 01:59:19;;;;;;;;;;;;;;;12.71;50.24;101000.84;4105751;28;20034;-67
2023/04/22 02:01:21;;;;;;;;;;;;;;;12.70;50.79;100995.59;4106013;28;20022;-67
2023/04/22 02:03:23;;;;;;;;;;;;;;;12.68;50.82;100990.38;4105733;28;20581;-67
2023/04/22 02:05:25;;;;;;;;;;;;;;;12.64;51.04;100985.50;4089546;28;20018;-68
2023/04/22 02:07:27;;;;;;;;;;;;;;;12.59;50.99;100991.47;4104347;28;20025;-68
2023/04/22 02:09:29;;;;;;;;;;;;;;;12.55;51.29;100982.00;4087491;29;20054;-67
2023/04/22 02:11:31;;;;;;;;;;;;;;;12.51;51.10;100981.56;4104447;28;20049;-68
2023/04/22 02:13:37;;;;;;;;;;;;;;;12.49;51.20;100988.16;4088428;29;20445;-68
2023/04/22 02:15:40;;;;;;;;;;;;;;;12.46;51.29;100980.41;4104107;28;19932;-68
2023/04/22 02:17:42;;;;;;;;;;;;;;;12.41;51.28;100975.53;4104053;28;20025;-69
2023/04/22 02:19:44;;;;;;;;;;;;;;;12.39;51.35;100973.00;4088441;28;19936;-67
2023/04/22 02:21:46;;;;;;;;;;;;;;;12.35;51.35;100977.13;4105586;28;20037;-67
2023/04/22 02:23:48;;;;;;;;;;;;;;;12.33;51.66;100972.91;4089129;29;20036;-67
2023/04/22 02:25:50;;;;;;;;;;;;;;;12.32;51.60;100976.63;4106487;28;20020;-67
2023/04/22 02:27:53;;;;;;;;;;;;;;;12.32;51.64;100974.78;4105164;28;20016;-67
2023/04/22 02:29:57;;;;;;;;;;;;;;;12.35;51.46;100968.13;4089753;28;20029;-67
2023/04/22 02:32:00;;;;;;;;;;;;;;;12.35;51.54;100970.84;4102861;28;20028;-68
2023/04/22 02:34:02;;;;;;;;;;;;;;;12.34;51.38;100970.03;4088412;29;20044;-67
2023/04/22 02:36:04;;;;;;;;;;;;;;;12.33;51.34;100962.06;4103648;28;20013;-67
2023/04/22 02:38:06;;;;;;;;;;;;;;;12.32;50.97;100965.78;4105758;28;20511;-67
2023/04/22 02:40:09;;;;;;;;;;;;;;;12.29;51.31;100961.59;4072512;29;20405;-67
2023/04/22 02:42:11;;;;;;;;;;;;;;;12.35;51.25;100960.00;4087903;28;20025;-67
2023/04/22 02:44:13;;;;;;;;;;;;;;;12.36;51.18;100959.84;4105574;28;20548;-67
2023/04/22 02:46:16;;;;;;;;;;;;;;;12.35;51.16;100960.00;4088542;29;19966;-67
2023/04/22 02:48:18;;;;;;;;;;;;;;;12.36;51.26;100954.41;4105001;28;20016;-67
2023/04/22 02:50:20;;;;;;;;;;;;;;;12.36;51.48;100962.53;4072029;29;20025;-67
2023/04/22 02:52:22;;;;;;;;;;;;;;;12.36;50.97;100950.88;4088467;29;20025;-67
2023/04/22 02:54:24;;;;;;;;;;;;;;;12.33;51.21;100957.50;4105424;28;20395;-67
2023/04/22 02:56:27;;;;;;;;;;;;;;;12.32;51.23;100945.00;4106256;28;20034;-67
2023/04/22 02:58:29;;;;;;;;;;;;;;;12.30;50.67;100949.72;4088470;29;20029;-67
2023/04/22 03:00:31;;;;;;;;;;;;;;;12.32;50.76;100949.53;4087111;29;20464;-67
2023/04/22 03:02:34;;;;;;;;;;;;;;;12.34;50.85;100952.94;4086876;29;20083;-67
2023/04/22 03:04:43;;;;;;;;;;;;;;;12.33;50.95;100956.66;4088212;29;20022;-67
2023/04/22 03:06:45;;;;;;;;;;;;;;;12.28;51.03;100953.66;4095395;29;20017;-67
2023/04/22 03:08:47;;;;;;;;;;;;;;;12.22;50.93;100953.34;4088854;28;20025;-67
2023/04/22 03:10:50;;;;;;;;;;;;;;;12.21;51.14;100948.13;4103711;28;20109;-67
2023/04/22 03:12:52;;;;;;;;;;;;;;;12.17;50.95;100950.34;4105800;28;20432;-67
2023/04/22 03:14:56;;;;;;;;;;;;;;;12.14;51.46;100947.19;4105358;28;20100;-67
2023/04/22 03:17:00;;;;;;;;;;;;;;;12.11;51.11;100950.25;4072099;29;20025;-67
2023/04/22 03:19:03;;;;;;;;;;;;;;;12.11;51.26;100951.09;4102977;28;19965;-67
2023/04/22 03:21:07;;;;;;;;;;;;;;;12.11;51.15;100955.66;4103713;28;20029;-68
2023/04/22 03:23:09;;;;;;;;;;;;;;;12.08;51.41;100952.31;4104725;28;20025;-67
2023/04/22 03:25:12;;;;;;;;;;;;;;;12.05;51.47;100949.97;4088262;29;20028;-67
2023/04/22 03:27:14;;;;;;;;;;;;;;;12.04;51.58;100950.16;4085706;29;20022;-67
2023/04/22 03:29:16;;;;;;;;;;;;;;;12.04;51.75;100945.56;4103931;28;20082;-67
2023/04/22 03:31:18;;;;;;;;;;;;;;;12.07;51.79;100944.38;4088659;28;20049;-67
2023/04/22 03:33:21;;;;;;;;;;;;;;;12.10;51.15;100944.00;4087390;28;20030;-67
2023/04/22 03:35:31;;;;;;;;;;;;;;;12.10;51.31;100941.31;4103108;28;20018;-67
2023/04/22 03:37:36;;;;;;;;;;;;;;;12.10;51.12;100944.00;4104631;28;20028;-67
2023/04/22 03:39:38;;;;;;;;;;;;;;;12.04;50.88;100945.56;4087495;29;20466;-68
2023/04/22 03:41:42;;;;;;;;;;;;;;;11.98;51.38;100940.03;4088086;28;19963;-67
2023/04/22 03:43:44;;;;;;;;;;;;;;;11.92;51.36;100948.84;4088308;29;20049;-68
2023/04/22 03:45:46;;;;;;;;;;;;;;;11.87;51.54;100949.41;4072248;29;20029;-68
2023/04/22 03:47:54;;;;;;;;;;;;;;;11.85;51.62;100946.03;4072518;29;20469;-68
2023/04/22 03:50:08;;;;;;;;;;;;;;;11.80;51.81;100951.13;4103424;28;20678;-68
2023/04/22 03:52:13;;;;;;;;;;;;;;;11.73;52.21;100951.84;4071549;29;20037;-67
2023/04/22 03:54:21;;;;;;;;;;;;;;;11.67;52.23;100949.84;4088127;29;19970;-67
2023/04/22 03:56:26;;;;;;;;;;;;;;;11.67;52.62;100947.16;4103483;28;20499;-67
2023/04/22 03:58:32;;;;;;;;;;;;;;;11.66;52.74;100950.03;4102835;28;20085;-68
2023/04/22 04:00:36;;;;;;;;;;;;;;;11.65;52.34;100946.50;4087684;29;20021;-68
2023/04/22 04:02:44;;;;;;;;;;;;;;;11.64;52.35;100949.38;4071889;29;20025;-68
2023/04/22 04:04:50;;;;;;;;;;;;;;;11.59;52.45;100947.22;4088301;28;20473;-67
2023/04/22 04:06:53;;;;;;;;;;;;;;;11.58;52.70;100953.63;4102559;28;20032;-68
2023/04/22 04:08:57;;;;;;;;;;;;;;;11.59;52.62;100958.03;4102294;28;20021;-67
2023/04/22 04:10:59;;;;;;;;;;;;;;;11.60;52.95;100954.31;4101658;28;20014;-67
2023/04/22 04:13:02;;;;;;;;;;;;;;;11.58;52.98;100960.91;4087569;29;20384;-67
2023/04/22 04:15:11;;;;;;;;;;;;;;;11.52;53.17;100960.59;4101671;28;20009;-67
2023/04/22 04:17:13;;;;;;;;;;;;;;;11.50;52.83;100962.66;4071605;29;20029;-67
2023/04/22 04:19:16;;;;;;;;;;;;;;;11.53;53.17;100956.03;4101664;28;20025;-67
2023/04/22 04:21:18;;;;;;;;;;;;;;;11.49;53.29;100955.56;4101976;28;20016;-67
2023/04/22 04:23:25;;;;;;;;;;;;;;;11.49;53.05;100955.56;4089834;29;19930;-67
2023/04/22 04:25:36;;;;;;;;;;;;;;;11.53;53.14;100964.97;4105843;28;20366;-67
2023/04/22 04:27:41;;;;;;;;;;;;;;;11.57;53.17;100954.66;4105895;28;20025;-67
2023/04/22 04:29:46;;;;;;;;;;;;;;;11.54;52.75;100955.03;4089636;28;20017;-67
2023/04/22 04:31:53;;;;;;;;;;;;;;;11.59;52.81;100958.03;4104548;28;20037;-66
2023/04/22 04:33:57;;;;;;;;;;;;;;;11.60;52.91;100950.75;4105532;28;19996;-66
2023/04/22 04:36:00;;;;;;;;;;;;;;;11.59;52.72;100952.63;4089793;28;20034;-67
2023/04/22 04:38:06;;;;;;;;;;;;;;;11.59;52.54;100951.78;4090754;29;20607;-67
2023/04/22 04:40:11;;;;;;;;;;;;;;;11.60;52.81;100954.31;4105355;28;20051;-68
2023/04/22 04:42:32;;;;;;;;;;;;;;;11.62;52.62;100959.53;4089785;29;20013;-68
2023/04/22 04:44:38;;;;;;;;;;;;;;;11.63;52.30;100950.38;4104215;28;20447;-67
2023/04/22 04:46:41;;;;;;;;;;;;;;;11.64;52.31;100952.91;4090948;28;20013;-68
2023/04/22 04:48:45;;;;;;;;;;;;;;;11.64;52.38;100954.78;4090149;28;20033;-67
2023/04/22 04:50:49;;;;;;;;;;;;;;;11.64;52.20;100952.91;4106347;28;20029;-67
2023/04/22 04:52:52;;;;;;;;;;;;;;;11.65;52.25;100965.44;4089800;28;19931;-68
2023/04/22 04:54:58;;;;;;;;;;;;;;;11.67;52.26;100957.97;4105454;28;20435;-67
2023/04/22 04:57:02;;;;;;;;;;;;;;;11.67;52.12;100957.97;4107071;28;19930;-67
2023/04/22 04:59:09;;;;;;;;;;;;;;;11.66;52.18;100960.84;4073737;29;19931;-68
2023/04/22 05:01:13;;;;;;;;;;;;;;;11.66;52.40;100958.16;4074026;29;20135;-69
2023/04/22 05:03:17;;;;;;;;;;;;;;;11.66;52.32;100959.00;4074240;29;20026;-68
2023/04/22 05:05:21;;;;;;;;;;;;;;;11.70;51.92;100963.03;4089041;29;19934;-68
2023/04/22 05:07:23;;;;;;;;;;;;;;;11.75;51.92;100951.66;4088712;29;19938;-67
2023/04/22 05:09:28;;;;;;;;;;;;;;;11.75;51.48;100959.78;4087901;29;20017;-68
2023/04/22 05:11:30;;;;;;;;;;;;;;;11.81;51.97;100956.34;4074156;29;20592;-67
2023/04/22 05:13:34;;;;;;;;;;;;;;;11.83;51.87;100967.88;4089202;29;20050;-67
2023/04/22 05:15:39;;;;;;;;;;;;;;;11.83;52.06;100958.88;4103515;28;20037;-67
2023/04/22 05:17:41;;;;;;;;;;;;;;;11.82;52.06;100951.81;4105515;28;20041;-68
2023/04/22 05:19:43;;;;;;;;;;;;;;;11.84;51.93;100952.47;4072626;29;20029;-68
2023/04/22 05:21:46;;;;;;;;;;;;;;;11.87;52.24;100954.81;4090005;28;20025;-68
2023/04/22 05:23:50;;;;;;;;;;;;;;;11.89;52.04;100959.00;4103471;28;20021;-67
2023/04/22 05:25:52;;;;;;;;;;;;;;;11.89;51.69;100942.75;4101944;28;19930;-67
2023/04/22 05:27:55;;;;;;;;;;;;;;;11.92;52.03;100948.84;4106344;28;20053;-67
2023/04/22 05:29:59;;;;;;;;;;;;;;;11.93;51.73;100961.38;4089946;28;20499;-67
2023/04/22 05:32:08;;;;;;;;;;;;;;;11.98;51.40;100961.69;4102880;28;20025;-67
2023/04/22 05:34:10;;;;;;;;;;;;;;;12.00;51.14;100955.06;4089948;29;20021;-67
2023/04/22 05:36:13;;;;;;;;;;;;;;;12.04;51.72;100950.16;4101824;28;20025;-67
2023/04/22 05:38:15;;;;;;;;;;;;;;;12.06;51.29;100948.09;4104783;28;20018;-67
2023/04/22 05:40:17;;;;;;;;;;;;;;;12.11;51.21;100952.97;4103433;28;20085;-67
2023/04/22 05:42:19;;;;;;;;;;;;;;;12.12;50.81;100946.53;4087818;29;20021;-67
2023/04/22 05:44:21;;;;;;;;;;;;;;;12.13;50.81;100945.50;4088472;29;19962;-67
2023/04/22 05:46:23;;;;;;;;;;;;;;;12.20;51.10;100954.56;4106164;28;20021;-67
2023/04/22 05:48:27;;;;;;;;;;;;;;;12.19;50.66;100953.72;4073423;29;20071;-67
2023/04/22 05:50:34;;;;;;;;;;;;;;;12.23;50.50;100948.78;4072803;29;20053;-67
2023/04/22 05:52:42;;;;;;;;;;;;;;;12.23;50.47;100949.63;4088680;29;20026;-67
2023/04/22 05:54:49;;;;;;;;;;;;;;;12.27;50.22;100950.09;4104872;28;19973;-67
2023/04/22 05:56:51;;;;;;;;;;;;;;;12.31;50.80;100948.72;4073457;29;20026;-67
2023/04/22 05:58:57;;;;;;;;;;;;;;;12.34;50.34;100958.34;4071878;29;20022;-66
2023/04/22 06:01:00;;;;;;;;;;;;;;;12.38;51.35;100956.94;4079272;29;20038;-67
2023/04/22 06:03:24;;;;;;;;;;;;;;;12.41;50.79;100949.31;4102865;28;20033;-66
2023/04/22 06:05:27;;;;;;;;;;;;;;;12.46;50.14;100956.88;4088071;28;20013;-66
2023/04/22 06:07:31;;;;;;;;;;;;;;;12.47;49.96;100950.41;4100238;28;20705;-66
2023/04/22 06:09:33;;;;;;;;;;;;;;;12.49;50.01;100947.53;4086781;29;20021;-66
2023/04/22 06:11:35;;;;;;;;;;;;;;;12.45;49.45;100955.19;4102305;28;20033;-67
2023/04/22 06:13:37;;;;;;;;;;;;;;;12.46;49.64;100953.31;4103492;28;20021;-67
2023/04/22 06:15:39;;;;;;;;;;;;;;;12.48;49.63;100960.25;4071945;29;20071;-67
2023/04/22 06:17:43;;;;;;;;;;;;;;;12.48;49.47;100954.00;4081629;29;20422;-67
2023/04/22 06:19:45;;;;;;;;;;;;;;;12.48;49.52;100957.53;4087509;28;20025;-67
2023/04/22 06:21:48;;;;;;;;;;;;;;;12.52;49.77;100961.53;4101436;28;20021;-67
2023/04/22 06:23:51;;;;;;;;;;;;;;;12.57;49.84;100961.00;4086714;29;20029;-68
2023/04/22 06:25:53;;;;;;;;;;;;;;;12.57;49.83;100964.56;4103669;28;20033;-68
2023/04/22 06:27:57;;;;;;;;;;;;;;;12.58;49.85;100957.25;4085552;29;20006;-67
2023/04/22 06:30:01;;;;;;;;;;;;;;;12.62;49.67;100961.28;4084573;29;20065;-67
2023/04/22 06:32:06;;;;;;;;;;;;;;;12.67;49.80;100950.72;4088782;28;20386;-67
2023/04/22 06:34:08;;;;;;;;;;;;;;;12.70;49.89;100953.06;4086945;29;20025;-68
2023/04/22 06:36:13;;;;;;;;;;;;;;;12.73;49.56;100949.16;4081752;28;19934;-66
2023/04/22 06:38:18;;;;;;;;;;;;;;;12.76;49.42;100946.91;4085582;29;20481;-66
2023/04/22 06:40:50;;;;;;;;;;;;;;;12.82;49.92;100949.91;4045308;29;20018;-67
2023/04/22 06:43:02;;;;;;;;;;;;;;;12.87;50.12;100942.91;4088245;28;20013;-66
2023/04/22 06:45:24;;;;;;;;;;;;;;;12.93;49.62;100955.69;4085489;28;20045;-66
2023/04/22 06:47:40;;;;;;;;;;;;;;;12.96;49.64;100944.47;4085620;29;20037;-66
2023/04/22 06:49:45;;;;;;;;;;;;;;;13.01;49.69;100951.19;4087609;28;20358;-66
2023/04/22 06:52:03;;;;;;;;;;;;;;;13.05;49.61;100945.22;4087494;29;19958;-66
2023/04/22 06:54:06;;;;;;;;;;;;;;;13.08;49.71;100946.72;4088146;29;20029;-66
2023/04/22 06:56:08;;;;;;;;;;;;;;;13.11;49.96;100941.75;4103567;28;20021;-66
2023/04/22 06:58:11;;;;;;;;;;;;;;;13.17;50.06;100945.59;4102220;28;20037;-66
2023/04/22 07:00:13;;;;;;;;;;;;;;;13.20;49.23;100947.91;4104308;28;20378;-66
2023/04/22 07:02:16;;;;;;;;;;;;;;;13.23;49.45;100933.97;4071780;29;20013;-66
2023/04/22 07:04:19;;;;;;;;;;;;;;;13.26;49.39;100939.03;4097583;28;20021;-66
2023/04/22 07:06:21;;;;;;;;;;;;;;;13.29;49.70;100935.94;4101096;28;20021;-66
2023/04/22 07:08:24;;;;;;;;;;;;;;;13.33;49.67;100937.25;4101782;28;20029;-68
2023/04/22 07:10:27;;;;;;;;;;;;;;;13.37;49.74;100942.28;4087782;28;20510;-67
2023/04/22 07:12:49;;;;;;;;;;;;;;;13.41;49.55;100935.47;4102757;28;20046;-67
2023/04/22 07:14:51;;;;;;;;;;;;;;;13.44;49.45;100938.63;4102308;28;20449;-66
2023/04/22 07:16:53;;;;;;;;;;;;;;;13.47;49.25;100940.97;4103534;28;19972;-66
2023/04/22 07:18:56;;;;;;;;;;;;;;;13.51;48.95;100946.84;4103430;28;20009;-67
2023/04/22 07:20:58;;;;;;;;;;;;;;;13.54;49.30;100940.19;4103102;28;20029;-67
2023/04/22 07:23:00;;;;;;;;;;;;;;;13.59;49.26;100945.88;4100254;28;20017;-67
2023/04/22 07:25:02;;;;;;;;;;;;;;;13.63;49.30;100942.59;4103291;28;20029;-67
2023/04/22 07:27:06;;;;;;;;;;;;;;;13.67;50.00;100943.06;4104189;28;20475;-67
2023/04/22 07:29:08;;;;;;;;;;;;;;;13.70;49.22;100940.81;4071669;29;19931;-67
2023/04/22 07:31:10;;;;;;;;;;;;;;;13.74;49.01;100941.25;4102344;28;20448;-67
2023/04/22 07:33:13;;;;;;;;;;;;;;;13.78;49.40;100947.97;4103780;28;20025;-68
2023/04/22 07:35:15;;;;;;;;;;;;;;;13.82;49.70;100940.28;4103769;28;20356;-68
2023/04/22 07:37:17;;;;;;;;;;;;;;;13.86;50.12;100936.16;4104913;28;20024;-66
2023/04/22 07:39:19;;;;;;;;;;;;;;;13.91;49.27;100936.41;4104940;28;20037;-67
2023/04/22 07:41:21;;;;;;;;;;;;;;;13.94;49.62;100937.91;4087815;28;20017;-68
2023/04/22 07:43:24;;;;;;;;;;;;;;;13.97;48.87;100938.34;4104171;28;20016;-67
2023/04/22 07:45:26;;;;;;;;;;;;;;;14.00;48.98;100946.09;4104358;28;20487;-67
2023/04/22 07:47:28;;;;;;;;;;;;;;;14.02;49.83;100933.16;4086979;29;20041;-67
2023/04/22 07:49:30;;;;;;;;;;;;;;;14.05;49.82;100935.50;4103940;28;20391;-67
2023/04/22 07:51:33;;;;;;;;;;;;;;;14.11;49.16;100927.63;4102937;28;19931;-68
2023/04/22 07:53:35;;;;;;;;;;;;;;;14.14;49.14;100928.06;4101610;28;20017;-67
2023/04/22 07:55:39;;;;;;;;;;;;;;;14.19;49.20;100935.63;4103246;28;20025;-67
2023/04/22 07:57:41;;;;;;;;;;;;;;;14.23;49.46;100937.75;4088832;29;20021;-67
2023/04/22 07:59:45;;;;;;;;;;;;;;;14.28;48.84;100933.59;4105963;28;20440;-67
2023/04/22 08:01:50;;;;;;;;;;;;;;;14.30;48.66;100921.50;4106792;28;19930;-66
2023/04/22 08:03:52;;;;;;;;;;;;;;;14.34;48.95;100925.50;4105913;28;20009;-67
2023/04/22 08:05:55;;;;;;;;;;;;;;;14.34;49.54;100919.22;4107165;28;20033;-67
2023/04/22 08:07:57;;;;;;;;;;;;;;;14.37;49.60;100916.09;4106417;28;20064;-67
2023/04/22 08:09:59;;;;;;;;;;;;;;;14.38;49.61;100912.34;4106749;28;20021;-67
2023/04/22 08:12:02;;;;;;;;;;;;;;;14.40;49.82;100913.84;4106943;28;19934;-67
2023/04/22 08:14:04;;;;;;;;;;;;;;;14.45;49.52;100901.53;4106795;28;20432;-67
2023/04/22 08:16:07;;;;;;;;;;;;;;;14.47;50.01;100907.63;4106704;28;20021;-68
2023/04/22 08:18:09;;;;;;;;;;;;;;;14.49;50.09;100900.09;4106798;28;20024;-67
2023/04/22 08:20:14;;;;;;;;;;;;;;;14.52;49.09;100902.41;4107164;28;20028;-67
2023/04/22 08:22:17;;;;;;;;;;;;;;;14.53;49.53;100901.38;4074384;29;20710;-68
2023/04/22 08:24:24;;;;;;;;;;;;;;;14.54;50.20;100900.34;4106643;28;20016;-68
2023/04/22 08:26:26;;;;;;;;;;;;;;;14.58;50.50;100901.63;4107261;28;20025;-68
2023/04/22 08:28:29;;;;;;;;;;;;;;;14.64;49.44;100900.88;4107128;28;20614;-68
2023/04/22 08:30:31;;;;;;;;;;;;;;;14.68;50.03;100898.56;4088086;29;20685;-67
2023/04/22 08:32:36;;;;;;;;;;;;;;;14.73;49.06;100896.94;4106232;28;19934;-68
2023/04/22 08:34:38;;;;;;;;;;;;;;;14.78;50.02;100893.63;4089397;29;20025;-67
2023/04/22 08:36:40;;;;;;;;;;;;;;;14.78;50.17;100890.91;4104795;28;20017;-67
2023/04/22 08:38:42;;;;;;;;;;;;;;;14.80;49.44;100888.81;4106675;28;20021;-68
2023/04/22 08:40:44;;;;;;;;;;;;;;;14.82;49.85;100888.63;4103060;28;20018;-67
2023/04/22 08:42:46;;;;;;;;;;;;;;;14.83;50.24;100884.84;4104649;28;20026;-67
2023/04/22 08:44:48;;;;;;;;;;;;;;;14.85;50.18;100880.06;4106781;28;20479;-67
2023/04/22 08:46:51;;;;;;;;;;;;;;;14.88;49.92;100885.91;4106919;28;20029;-67
2023/04/22 08:48:55;;;;;;;;;;;;;;;14.93;47.99;100880.72;4105207;28;20375;-67
2023/04/22 08:50:57;;;;;;;;;;;;;;;14.96;49.58;100893.91;4106304;28;20032;-67
2023/04/22 08:53:00;;;;;;;;;;;;;;;14.99;48.99;100884.50;4105784;28;20953;-67
2023/04/22 08:55:02;;;;;;;;;;;;;;;15.02;49.11;100883.28;4089614;29;20021;-68
2023/04/22 08:57:04;;;;;;;;;;;;;;;15.04;48.83;100883.91;4106506;28;20044;-67
2023/04/22 08:59:06;;;;;;;;;;;;;;;15.08;48.32;100888.72;4107041;28;20013;-67
2023/04/22 09:01:08;;;;;;;;;;;;;;;15.11;49.40;100888.31;4106126;28;20120;-66
2023/04/22 09:03:10;;;;;;;;;;;;;;;15.14;49.22;100885.19;4105798;28;20045;-67
2023/04/22 09:05:14;;;;;;;;;;;;;;;15.17;49.57;100883.94;4106256;28;19990;-67
2023/04/22 09:07:18;;;;;;;;;;;;;;;15.22;48.34;100886.91;4105670;28;20032;-68
2023/04/22 09:09:20;;;;;;;;;;;;;;;15.27;49.17;100892.56;4105861;28;19930;-67
2023/04/22 09:11:22;;;;;;;;;;;;;;;15.35;49.09;100885.28;4106483;28;20021;-68
2023/04/22 09:13:24;;;;;;;;;;;;;;;15.36;49.59;100884.19;4105615;28;19942;-67
2023/04/22 09:15:26;;;;;;;;;;;;;;;15.36;48.91;100886.94;4105702;28;20013;-67
2023/04/22 09:17:31;;;;;;;;;;;;;;;15.37;48.89;100880.44;4088431;29;20018;-67
2023/04/22 09:19:33;;;;;;;;;;;;;;;15.36;49.27;100876.03;4106650;28;20024;-67
2023/04/22 09:21:37;;;;;;;;;;;;;;;15.36;50.09;100876.03;4105839;28;20033;-67
2023/04/22 09:23:46;;;;;;;;;;;;;;;15.37;49.75;100870.41;4088779;29;20033;-67
2023/04/22 09:25:48;;;;;;;;;;;;;;;15.43;50.06;100871.47;4089082;28;20394;-67
2023/04/22 09:27:50;;;;;;;;;;;;;;;15.47;49.76;100870.03;4106319;28;20364;-66
2023/04/22 09:29:52;;;;;;;;;;;;;;;15.50;49.82;100866.84;4105857;28;20025;-67
2023/04/22 09:31:54;;;;;;;;;;;;;;;15.48;49.50;100863.50;4105455;28;20025;-67
2023/04/22 09:33:57;;;;;;;;;;;;;;;15.48;50.02;100852.63;4105396;28;20428;-67
2023/04/22 09:35:59;;;;;;;;;;;;;;;15.51;48.57;100863.09;4105514;28;20021;-67
2023/04/22 09:38:03;;;;;;;;;;;;;;;15.58;49.03;100868.53;4106071;28;20029;-67
2023/04/22 09:40:07;;;;;;;;;;;;;;;15.66;49.09;100852.88;4105062;28;20028;-67
2023/04/22 09:42:10;;;;;;;;;;;;;;;15.70;49.22;100850.56;4105526;28;20022;-67
2023/04/22 09:44:14;;;;;;;;;;;;;;;15.74;49.53;100848.28;4105586;28;20586;-67
2023/04/22 09:46:16;;;;;;;;;;;;;;;15.68;49.69;100839.88;4105654;28;20379;-67
2023/04/22 09:48:18;;;;;;;;;;;;;;;15.71;47.26;100840.53;4105225;28;20016;-67
2023/04/22 09:50:21;;;;;;;;;;;;;;;15.73;49.03;100844.69;4086968;28;19965;-66
2023/04/22 09:52:25;;;;;;;;;;;;;;;15.78;49.26;100841.38;4103750;28;20354;-67
2023/04/22 09:54:29;;;;;;;;;;;;;;;15.85;49.00;100843.06;4105427;28;19934;-67
2023/04/22 09:56:41;;;;;;;;;;;;;;;15.93;46.13;100838.47;4105027;28;20005;-67
2023/04/22 09:58:43;;;;;;;;;;;;;;;15.99;46.54;100834.91;4104814;28;20025;-67
2023/04/22 10:00:46;;;;;;;;;;;;;;;15.99;47.81;100833.00;4101863;28;20028;-68
2023/04/22 10:02:48;;;;;;;;;;;;;;;16.00;48.34;100829.25;4103956;28;20370;-67
2023/04/22 10:04:50;;;;;;;;;;;;;;;16.02;48.17;100820.84;4105235;28;20052;-68
2023/04/22 10:06:52;;;;;;;;;;;;;;;16.03;48.63;100817.91;4104200;28;20021;-67
2023/04/22 10:08:54;;;;;;;;;;;;;;;16.04;48.63;100829.66;4103702;28;20029;-67
2023/04/22 10:10:58;;;;;;;;;;;;;;;16.06;46.89;100818.53;4104060;28;19969;-66
2023/04/22 10:13:00;;;;;;;;;;;;;;;16.07;47.90;100817.50;4105538;28;20472;-67
2023/04/22 10:15:06;;;;;;;;;;;;;;;16.10;47.04;100801.56;4073413;28;19931;-68
2023/04/22 10:17:12;;;;;;;;;;;;;;;16.11;48.09;100803.25;4105772;28;20013;-67
2023/04/22 10:19:14;;;;;;;;;;;;;;;16.15;46.78;100804.47;4086990;28;20039;-68
2023/04/22 10:21:19;;;;;;;;;;;;;;;16.19;47.22;100797.56;4105028;28;20032;-68
2023/04/22 10:23:23;;;;;;;;;;;;;;;16.26;47.62;100818.50;4103740;28;20037;-67
2023/04/22 10:25:26;;;;;;;;;;;;;;;16.33;47.91;100798.38;4104473;28;20021;-68
2023/04/22 10:27:29;;;;;;;;;;;;;;;16.31;48.07;100805.91;4104130;28;20033;-68
2023/04/22 10:29:35;;;;;;;;;;;;;;;16.33;47.94;100806.53;4104887;28;20021;-68
2023/04/22 10:31:38;;;;;;;;;;;;;;;16.33;47.40;100784.75;4105566;28;20029;-66
2023/04/22 10:33:41;;;;;;;;;;;;;;;16.32;48.05;100779.50;4087730;29;20336;-68